Isa (cyprus) — P3HF8 — position and weather

sailwx.info

Track history (hours):
 
Tides and Currents Weather Stations Pressure Air Temp Water Temp Dewpoint Dewpoint Depression Visibility Wind Speed Wind Dir Waves Ship Positions

Isa (cyprus)

Last reported at 2017-Dec-12 14:00 UTC. Time now 2017-Dec-18 11:06 UTC.
Position N 00°11' W 050°45'.

Length 200 m; beam 24 m.

Type: Ship. MMSI: 212773000.

Date/timePositionNaut miles runAvg speedWind from/ knotsBaromVisibWave heightAir tempDewpointWater temp
2017-Dec-12 14:00N 00°11' W 050°45'4 8.5
2017-Dec-12 13:31N 00°10' W 050°49'4 7.9
2017-Dec-12 13:00N 00°10' W 050°53'4 8.4
2017-Dec-12 12:31N 00°08' W 050°57'5 9.0
2017-Dec-12 12:01N 00°04' W 050°60'4 8.9
2017-Dec-12 11:30S 00°00' W 051°01'5 9.6
2017-Dec-12 11:00S 00°05' W 051°00'611.8
2017-Dec-12 10:30S 00°11' W 051°02'  
2017-Dec-04 10:30S 00°04' W 051°07'1 1.3
2017-Dec-04 10:00S 00°04' W 051°06'2 3.7
2017-Dec-04 09:30S 00°03' W 051°04'3 5.2
2017-Dec-04 09:00S 00°01' W 051°03'4 8.8
2017-Dec-04 08:30N 00°03' W 051°00'3 4.8
2017-Dec-04 07:58N 00°04' W 050°58'0 0.2
2017-Dec-04 07:28N 00°04' W 050°58'0 0.1
2017-Dec-04 06:58N 00°04' W 050°58'0 0.0
2017-Dec-04 06:28N 00°04' W 050°58'0 0.0
2017-Dec-04 05:58N 00°04' W 050°58'0 0.0
2017-Dec-04 05:28N 00°04' W 050°58'0 0.0
2017-Dec-04 04:52N 00°04' W 050°58'0 0.0
2017-Dec-04 04:28N 00°04' W 050°58'0 0.0
2017-Dec-04 03:58N 00°04' W 050°58'0 0.0
2017-Dec-04 03:28N 00°04' W 050°58'0 0.0
2017-Dec-04 02:58N 00°04' W 050°58'0 0.1
2017-Dec-04 02:28N 00°04' W 050°58'0 0.3
2017-Dec-04 01:58N 00°04' W 050°58'0 0.1
2017-Dec-04 01:28N 00°05' W 050°58'0 0.1
2017-Dec-04 00:58N 00°05' W 050°58'0 0.0
2017-Dec-04 00:28N 00°05' W 050°58'0 0.0
2017-Dec-03 23:58N 00°05' W 050°58'0 0.0
2017-Dec-03 23:28N 00°05' W 050°58'0 0.0
2017-Dec-03 22:59N 00°05' W 050°58'0 0.0
2017-Dec-03 22:27N 00°04' W 050°58'0 0.0
2017-Dec-03 22:00N 00°05' W 050°58'0 0.0
2017-Dec-03 21:30N 00°04' W 050°58'0 0.2
2017-Dec-03 20:55N 00°04' W 050°58'0 0.3
2017-Dec-03 20:25N 00°04' W 050°58'0 0.1
2017-Dec-03 19:55N 00°04' W 050°58'0 0.0
2017-Dec-03 19:19N 00°04' W 050°58'0 0.0
2017-Dec-03 18:43N 00°04' W 050°58'0 0.1
2017-Dec-03 18:25N 00°04' W 050°58'0 0.0
2017-Dec-03 17:55N 00°04' W 050°58'0 0.0
2017-Dec-03 17:25N 00°04' W 050°58'0 0.0
2017-Dec-03 16:55N 00°04' W 050°58'0 0.0
2017-Dec-03 16:25N 00°04' W 050°58'0 0.0
2017-Dec-03 15:55N 00°04' W 050°58'0 0.0
2017-Dec-03 15:25N 00°04' W 050°58'0 0.1
2017-Dec-03 14:55N 00°04' W 050°58'0 0.0
2017-Dec-03 14:25N 00°04' W 050°58'0 0.4
2017-Dec-03 13:55N 00°05' W 050°58'0 0.1
2017-Dec-03 13:07N 00°05' W 050°58'0 0.0
2017-Dec-03 12:58N 00°05' W 050°58'0 0.0
2017-Dec-03 12:28N 00°05' W 050°58'0 0.0
2017-Dec-03 11:58N 00°05' W 050°58'0 0.0
2017-Dec-03 11:25N 00°05' W 050°58'0 0.0
2017-Dec-03 10:55N 00°05' W 050°58'0 0.1
2017-Dec-03 10:25N 00°05' W 050°58'0 0.0
2017-Dec-03 09:55N 00°05' W 050°58'0 0.0
2017-Dec-03 09:25N 00°05' W 050°58'0 0.0
2017-Dec-03 08:56N 00°05' W 050°58'0 0.1
2017-Dec-03 08:30N 00°05' W 050°58'0 0.3
2017-Dec-03 07:50N 00°04' W 050°58'0 0.0
2017-Dec-03 07:20N 00°04' W 050°58'0 0.1
2017-Dec-03 06:50N 00°04' W 050°58'0 0.0
2017-Dec-03 06:26N 00°04' W 050°58'0 0.0
2017-Dec-03 05:50N 00°04' W 050°58'0 0.0
2017-Dec-03 05:30N 00°04' W 050°58'0 0.2
2017-Dec-03 04:56N 00°04' W 050°58'0 0.3
2017-Dec-03 04:26N 00°04' W 050°58'0 0.0
2017-Dec-03 02:44N 00°04' W 050°58'0 0.0
2017-Dec-03 02:26N 00°04' W 050°58'0 0.0
2017-Dec-03 01:51N 00°04' W 050°58'1 1.5
2017-Dec-03 01:29N 00°05' W 050°58'0 0.6
2017-Dec-03 01:00N 00°05' W 050°58'0 0.0
2017-Dec-03 00:20N 00°05' W 050°58'0 0.0
2017-Dec-02 23:56N 00°05' W 050°58'0 0.0
2017-Dec-02 23:26N 00°05' W 050°58'0 0.0
2017-Dec-02 22:56N 00°05' W 050°58'0 0.0
2017-Dec-02 22:26N 00°05' W 050°58'0 0.0
2017-Dec-02 21:56N 00°05' W 050°58'0 0.7
2017-Dec-02 21:29N 00°04' W 050°58'0 0.6
2017-Dec-02 20:59N 00°04' W 050°58'0 0.0
2017-Dec-02 20:29N 00°04' W 050°58'0 0.2
2017-Dec-02 19:59N 00°04' W 050°58'0 0.6
2017-Dec-02 19:29N 00°05' W 050°58'0 0.8
2017-Dec-02 18:59N 00°04' W 050°58'0 0.0
2017-Dec-02 18:05N 00°04' W 050°58'0 0.1
2017-Dec-02 17:59N 00°04' W 050°58'0 0.0
2017-Dec-02 17:29N 00°04' W 050°58'0 0.0
2017-Dec-02 16:59N 00°04' W 050°58'0 0.0
2017-Dec-02 16:26N 00°04' W 050°58'0 0.8
2017-Dec-02 15:56N 00°04' W 050°58'0 0.8
2017-Dec-02 15:26N 00°04' W 050°58'0 0.0
2017-Dec-02 14:50N 00°04' W 050°58'0 0.0
2017-Dec-02 14:14N 00°04' W 050°58'  
Track history (hours):
 
Tides and Currents Weather Stations Pressure Air Temp Water Temp Dewpoint Dewpoint Depression Visibility Wind Speed Wind Dir Waves Ship Positions

Isa (cyprus)

Last reported at 2017-Dec-12 14:00 UTC. Time now 2017-Dec-18 11:06 UTC.
Position N 00°11' W 050°45'.

Length 200 m; beam 24 m.

Type: Ship. MMSI: 212773000.

Date/timePositionNaut miles runAvg speedWind from/ knotsBaromVisibWave heightAir tempDewpointWater temp
2017-Dec-12 14:00N 00°11' W 050°45'4 8.5
2017-Dec-12 13:31N 00°10' W 050°49'4 7.9
2017-Dec-12 13:00N 00°10' W 050°53'4 8.4
2017-Dec-12 12:31N 00°08' W 050°57'5 9.0
2017-Dec-12 12:01N 00°04' W 050°60'4 8.9
2017-Dec-12 11:30S 00°00' W 051°01'5 9.6
2017-Dec-12 11:00S 00°05' W 051°00'611.8
2017-Dec-12 10:30S 00°11' W 051°02'  
2017-Dec-04 10:30S 00°04' W 051°07'1 1.3
2017-Dec-04 10:00S 00°04' W 051°06'2 3.7
2017-Dec-04 09:30S 00°03' W 051°04'3 5.2
2017-Dec-04 09:00S 00°01' W 051°03'4 8.8
2017-Dec-04 08:30N 00°03' W 051°00'3 4.8
2017-Dec-04 07:58N 00°04' W 050°58'0 0.2
2017-Dec-04 07:28N 00°04' W 050°58'0 0.1
2017-Dec-04 06:58N 00°04' W 050°58'0 0.0
2017-Dec-04 06:28N 00°04' W 050°58'0 0.0
2017-Dec-04 05:58N 00°04' W 050°58'0 0.0
2017-Dec-04 05:28N 00°04' W 050°58'0 0.0
2017-Dec-04 04:52N 00°04' W 050°58'0 0.0
2017-Dec-04 04:28N 00°04' W 050°58'0 0.0
2017-Dec-04 03:58N 00°04' W 050°58'0 0.0
2017-Dec-04 03:28N 00°04' W 050°58'0 0.0
2017-Dec-04 02:58N 00°04' W 050°58'0 0.1
2017-Dec-04 02:28N 00°04' W 050°58'0 0.3
2017-Dec-04 01:58N 00°04' W 050°58'0 0.1
2017-Dec-04 01:28N 00°05' W 050°58'0 0.1
2017-Dec-04 00:58N 00°05' W 050°58'0 0.0
2017-Dec-04 00:28N 00°05' W 050°58'0 0.0
2017-Dec-03 23:58N 00°05' W 050°58'0 0.0
2017-Dec-03 23:28N 00°05' W 050°58'0 0.0
2017-Dec-03 22:59N 00°05' W 050°58'0 0.0
2017-Dec-03 22:27N 00°04' W 050°58'0 0.0
2017-Dec-03 22:00N 00°05' W 050°58'0 0.0
2017-Dec-03 21:30N 00°04' W 050°58'0 0.2
2017-Dec-03 20:55N 00°04' W 050°58'0 0.3
2017-Dec-03 20:25N 00°04' W 050°58'0 0.1
2017-Dec-03 19:55N 00°04' W 050°58'0 0.0
2017-Dec-03 19:19N 00°04' W 050°58'0 0.0
2017-Dec-03 18:43N 00°04' W 050°58'0 0.1
2017-Dec-03 18:25N 00°04' W 050°58'0 0.0
2017-Dec-03 17:55N 00°04' W 050°58'0 0.0
2017-Dec-03 17:25N 00°04' W 050°58'0 0.0
2017-Dec-03 16:55N 00°04' W 050°58'0 0.0
2017-Dec-03 16:25N 00°04' W 050°58'0 0.0
2017-Dec-03 15:55N 00°04' W 050°58'0 0.0
2017-Dec-03 15:25N 00°04' W 050°58'0 0.1
2017-Dec-03 14:55N 00°04' W 050°58'0 0.0
2017-Dec-03 14:25N 00°04' W 050°58'0 0.4
2017-Dec-03 13:55N 00°05' W 050°58'0 0.1
2017-Dec-03 13:07N 00°05' W 050°58'0 0.0
2017-Dec-03 12:58N 00°05' W 050°58'0 0.0
2017-Dec-03 12:28N 00°05' W 050°58'0 0.0
2017-Dec-03 11:58N 00°05' W 050°58'0 0.0
2017-Dec-03 11:25N 00°05' W 050°58'0 0.0
2017-Dec-03 10:55N 00°05' W 050°58'0 0.1
2017-Dec-03 10:25N 00°05' W 050°58'0 0.0
2017-Dec-03 09:55N 00°05' W 050°58'0 0.0
2017-Dec-03 09:25N 00°05' W 050°58'0 0.0
2017-Dec-03 08:56N 00°05' W 050°58'0 0.1
2017-Dec-03 08:30N 00°05' W 050°58'0 0.3
2017-Dec-03 07:50N 00°04' W 050°58'0 0.0
2017-Dec-03 07:20N 00°04' W 050°58'0 0.1
2017-Dec-03 06:50N 00°04' W 050°58'0 0.0
2017-Dec-03 06:26N 00°04' W 050°58'0 0.0
2017-Dec-03 05:50N 00°04' W 050°58'0 0.0
2017-Dec-03 05:30N 00°04' W 050°58'0 0.2
2017-Dec-03 04:56N 00°04' W 050°58'0 0.3
2017-Dec-03 04:26N 00°04' W 050°58'0 0.0
2017-Dec-03 02:44N 00°04' W 050°58'0 0.0
2017-Dec-03 02:26N 00°04' W 050°58'0 0.0
2017-Dec-03 01:51N 00°04' W 050°58'1 1.5
2017-Dec-03 01:29N 00°05' W 050°58'0 0.6
2017-Dec-03 01:00N 00°05' W 050°58'0 0.0
2017-Dec-03 00:20N 00°05' W 050°58'0 0.0
2017-Dec-02 23:56N 00°05' W 050°58'0 0.0
2017-Dec-02 23:26N 00°05' W 050°58'0 0.0
2017-Dec-02 22:56N 00°05' W 050°58'0 0.0
2017-Dec-02 22:26N 00°05' W 050°58'0 0.0
2017-Dec-02 21:56N 00°05' W 050°58'0 0.7
2017-Dec-02 21:29N 00°04' W 050°58'0 0.6
2017-Dec-02 20:59N 00°04' W 050°58'0 0.0
2017-Dec-02 20:29N 00°04' W 050°58'0 0.2
2017-Dec-02 19:59N 00°04' W 050°58'0 0.6
2017-Dec-02 19:29N 00°05' W 050°58'0 0.8
2017-Dec-02 18:59N 00°04' W 050°58'0 0.0
2017-Dec-02 18:05N 00°04' W 050°58'0 0.1
2017-Dec-02 17:59N 00°04' W 050°58'0 0.0
2017-Dec-02 17:29N 00°04' W 050°58'0 0.0
2017-Dec-02 16:59N 00°04' W 050°58'0 0.0
2017-Dec-02 16:26N 00°04' W 050°58'0 0.8
2017-Dec-02 15:56N 00°04' W 050°58'0 0.8
2017-Dec-02 15:26N 00°04' W 050°58'0 0.0
2017-Dec-02 14:50N 00°04' W 050°58'0 0.0
2017-Dec-02 14:14N 00°04' W 050°58'  

Dump ship's entire track history